sensor_id;sensor_type;location;lat;lon;timestamp;temperature;humidity
4556;DHT22;2290;48.674;9.018;2024-03-22T00:01:53;9.90;99.90
4556;DHT22;2290;48.674;9.018;2024-03-22T00:04:19;9.90;99.90
4556;DHT22;2290;48.674;9.018;2024-03-22T00:06:46;9.90;99.90
4556;DHT22;2290;48.674;9.018;2024-03-22T00:09:12;10.00;99.90
4556;DHT22;2290;48.674;9.018;2024-03-22T00:11:40;10.00;99.90
4556;DHT22;2290;48.674;9.018;2024-03-22T00:14:06;9.80;99.90
4556;DHT22;2290;48.674;9.018;2024-03-22T00:16:32;9.70;99.90
4556;DHT22;2290;48.674;9.018;2024-03-22T00:18:58;9.70;99.90
4556;DHT22;2290;48.674;9.018;2024-03-22T00:21:24;9.60;99.90
4556;DHT22;2290;48.674;9.018;2024-03-22T00:23:49;9.50;99.90
4556;DHT22;2290;48.674;9.018;2024-03-22T00:26:15;9.50;99.90
4556;DHT22;2290;48.674;9.018;2024-03-22T00:28:41;9.40;99.90
4556;DHT22;2290;48.674;9.018;2024-03-22T00:31:07;9.50;99.90
4556;DHT22;2290;48.674;9.018;2024-03-22T00:33:33;9.50;99.90
4556;DHT22;2290;48.674;9.018;2024-03-22T00:35:59;9.30;99.90
4556;DHT22;2290;48.674;9.018;2024-03-22T00:38:24;9.30;99.90
4556;DHT22;2290;48.674;9.018;2024-03-22T00:40:50;9.30;99.90
4556;DHT22;2290;48.674;9.018;2024-03-22T00:43:15;9.30;99.90
4556;DHT22;2290;48.674;9.018;2024-03-22T00:45:41;9.20;99.90
4556;DHT22;2290;48.674;9.018;2024-03-22T00:48:06;9.20;99.90
4556;DHT22;2290;48.674;9.018;2024-03-22T00:50:32;9.20;99.90
4556;DHT22;2290;48.674;9.018;2024-03-22T00:52:58;9.10;99.90
4556;DHT22;2290;48.674;9.018;2024-03-22T00:55:24;9.20;99.90
4556;DHT22;2290;48.674;9.018;2024-03-22T00:57:49;9.10;99.90
4556;DHT22;2290;48.674;9.018;2024-03-22T01:00:17;9.10;99.90
4556;DHT22;2290;48.674;9.018;2024-03-22T01:02:43;9.10;99.90
4556;DHT22;2290;48.674;9.018;2024-03-22T01:05:09;9.10;99.90
4556;DHT22;2290;48.674;9.018;2024-03-22T01:07:36;9.10;99.90
4556;DHT22;2290;48.674;9.018;2024-03-22T01:10:05;9.00;99.90
4556;DHT22;2290;48.674;9.018;2024-03-22T01:12:30;8.90;99.90
4556;DHT22;2290;48.674;9.018;2024-03-22T01:14:56;8.90;99.90
4556;DHT22;2290;48.674;9.018;2024-03-22T01:17:22;8.90;99.90
4556;DHT22;2290;48.674;9.018;2024-03-22T01:19:48;8.90;99.90
4556;DHT22;2290;48.674;9.018;2024-03-22T01:22:13;8.80;99.90
4556;DHT22;2290;48.674;9.018;2024-03-22T01:24:39;8.90;99.90
4556;DHT22;2290;48.674;9.018;2024-03-22T01:27:04;8.90;99.90
4556;DHT22;2290;48.674;9.018;2024-03-22T01:29:30;8.80;99.90
4556;DHT22;2290;48.674;9.018;2024-03-22T01:31:58;8.70;99.90
4556;DHT22;2290;48.674;9.018;2024-03-22T01:34:24;8.80;99.90
4556;DHT22;2290;48.674;9.018;2024-03-22T01:36:51;8.70;99.90
4556;DHT22;2290;48.674;9.018;2024-03-22T01:39:16;8.60;99.90
4556;DHT22;2290;48.674;9.018;2024-03-22T01:41:43;8.50;99.90
4556;DHT22;2290;48.674;9.018;2024-03-22T01:44:09;8.50;99.90
4556;DHT22;2290;48.674;9.018;2024-03-22T01:46:35;8.50;99.90
4556;DHT22;2290;48.674;9.018;2024-03-22T01:49:01;8.60;99.90
4556;DHT22;2290;48.674;9.018;2024-03-22T01:51:26;8.60;99.90
4556;DHT22;2290;48.674;9.018;2024-03-22T01:53:53;8.50;99.90
4556;DHT22;2290;48.674;9.018;2024-03-22T01:56:19;8.40;99.90
4556;DHT22;2290;48.674;9.018;2024-03-22T01:58:45;8.30;99.90
4556;DHT22;2290;48.674;9.018;2024-03-22T02:01:11;8.10;99.90
4556;DHT22;2290;48.674;9.018;2024-03-22T02:03:36;8.10;99.90
4556;DHT22;2290;48.674;9.018;2024-03-22T02:06:03;8.00;99.90
4556;DHT22;2290;48.674;9.018;2024-03-22T02:08:29;8.00;99.90
4556;DHT22;2290;48.674;9.018;2024-03-22T02:10:55;7.90;99.90
4556;DHT22;2290;48.674;9.018;2024-03-22T02:13:21;7.80;99.90
4556;DHT22;2290;48.674;9.018;2024-03-22T02:15:46;8.00;99.90
4556;DHT22;2290;48.674;9.018;2024-03-22T02:18:12;7.80;99.90
4556;DHT22;2290;48.674;9.018;2024-03-22T02:20:37;7.80;99.90
4556;DHT22;2290;48.674;9.018;2024-03-22T02:23:03;7.80;99.90
4556;DHT22;2290;48.674;9.018;2024-03-22T02:25:28;7.80;99.90
4556;DHT22;2290;48.674;9.018;2024-03-22T02:27:54;7.80;99.90
4556;DHT22;2290;48.674;9.018;2024-03-22T02:30:20;7.80;99.90
4556;DHT22;2290;48.674;9.018;2024-03-22T02:32:45;7.90;99.90
4556;DHT22;2290;48.674;9.018;2024-03-22T02:35:11;8.00;99.90
4556;DHT22;2290;48.674;9.018;2024-03-22T02:37:36;8.00;99.90
4556;DHT22;2290;48.674;9.018;2024-03-22T02:40:02;8.00;99.90
4556;DHT22;2290;48.674;9.018;2024-03-22T02:42:27;7.80;99.90
4556;DHT22;2290;48.674;9.018;2024-03-22T02:44:53;7.80;99.90
4556;DHT22;2290;48.674;9.018;2024-03-22T02:47:18;7.80;99.90
4556;DHT22;2290;48.674;9.018;2024-03-22T02:49:44;7.70;99.90
4556;DHT22;2290;48.674;9.018;2024-03-22T02:52:10;7.70;99.90
4556;DHT22;2290;48.674;9.018;2024-03-22T02:54:35;7.60;99.90
4556;DHT22;2290;48.674;9.018;2024-03-22T02:57:01;7.60;99.90
4556;DHT22;2290;48.674;9.018;2024-03-22T02:59:28;7.50;99.90
4556;DHT22;2290;48.674;9.018;2024-03-22T03:01:53;7.50;99.90
4556;DHT22;2290;48.674;9.018;2024-03-22T03:04:19;7.50;99.90
4556;DHT22;2290;48.674;9.018;2024-03-22T03:06:46;7.60;99.90
4556;DHT22;2290;48.674;9.018;2024-03-22T03:09:12;7.70;99.90
4556;DHT22;2290;48.674;9.018;2024-03-22T03:11:39;7.70;99.90
4556;DHT22;2290;48.674;9.018;2024-03-22T03:14:05;7.70;99.90
4556;DHT22;2290;48.674;9.018;2024-03-22T03:16:30;7.80;99.90
4556;DHT22;2290;48.674;9.018;2024-03-22T03:18:56;7.80;99.90
4556;DHT22;2290;48.674;9.018;2024-03-22T03:21:22;7.70;99.90
4556;DHT22;2290;48.674;9.018;2024-03-22T03:23:47;7.80;99.90
4556;DHT22;2290;48.674;9.018;2024-03-22T03:26:13;7.80;99.90
4556;DHT22;2290;48.674;9.018;2024-03-22T03:28:39;7.80;99.90
4556;DHT22;2290;48.674;9.018;2024-03-22T03:31:04;7.80;99.90
4556;DHT22;2290;48.674;9.018;2024-03-22T03:33:30;7.80;99.90
4556;DHT22;2290;48.674;9.018;2024-03-22T03:35:56;7.80;99.90
4556;DHT22;2290;48.674;9.018;2024-03-22T03:38:21;7.90;99.90
4556;DHT22;2290;48.674;9.018;2024-03-22T03:40:48;7.80;99.90
4556;DHT22;2290;48.674;9.018;2024-03-22T03:43:13;7.90;99.90
4556;DHT22;2290;48.674;9.018;2024-03-22T03:45:39;7.80;99.90
4556;DHT22;2290;48.674;9.018;2024-03-22T03:48:05;7.80;99.90
4556;DHT22;2290;48.674;9.018;2024-03-22T03:50:30;7.90;99.90
4556;DHT22;2290;48.674;9.018;2024-03-22T03:52:57;8.00;99.90
4556;DHT22;2290;48.674;9.018;2024-03-22T03:55:23;8.10;99.90
4556;DHT22;2290;48.674;9.018;2024-03-22T03:57:50;8.10;99.90
4556;DHT22;2290;48.674;9.018;2024-03-22T04:00:16;8.00;99.90
4556;DHT22;2290;48.674;9.018;2024-03-22T04:02:41;8.10;99.90
4556;DHT22;2290;48.674;9.018;2024-03-22T04:05:07;8.10;99.90
4556;DHT22;2290;48.674;9.018;2024-03-22T04:07:33;8.00;99.90
4556;DHT22;2290;48.674;9.018;2024-03-22T04:09:58;8.00;99.90
4556;DHT22;2290;48.674;9.018;2024-03-22T04:12:26;8.10;99.90
4556;DHT22;2290;48.674;9.018;2024-03-22T04:14:52;8.10;99.90
4556;DHT22;2290;48.674;9.018;2024-03-22T04:17:17;8.10;99.90
4556;DHT22;2290;48.674;9.018;2024-03-22T04:19:43;8.10;99.90
4556;DHT22;2290;48.674;9.018;2024-03-22T04:22:09;8.20;99.90
4556;DHT22;2290;48.674;9.018;2024-03-22T04:24:34;8.10;99.90
4556;DHT22;2290;48.674;9.018;2024-03-22T04:27:00;8.20;99.90
4556;DHT22;2290;48.674;9.018;2024-03-22T04:29:25;8.20;99.90
4556;DHT22;2290;48.674;9.018;2024-03-22T04:31:51;8.20;99.90
4556;DHT22;2290;48.674;9.018;2024-03-22T04:34:16;8.10;99.90
4556;DHT22;2290;48.674;9.018;2024-03-22T04:36:42;8.00;99.90
4556;DHT22;2290;48.674;9.018;2024-03-22T04:39:08;8.00;99.90
4556;DHT22;2290;48.674;9.018;2024-03-22T04:41:35;8.00;99.90
4556;DHT22;2290;48.674;9.018;2024-03-22T04:44:01;8.00;99.90
4556;DHT22;2290;48.674;9.018;2024-03-22T04:46:26;8.00;99.90
4556;DHT22;2290;48.674;9.018;2024-03-22T04:48:52;8.00;99.90
4556;DHT22;2290;48.674;9.018;2024-03-22T04:51:17;8.10;99.90
4556;DHT22;2290;48.674;9.018;2024-03-22T04:53:44;8.10;99.90
4556;DHT22;2290;48.674;9.018;2024-03-22T04:56:10;8.10;99.90
4556;DHT22;2290;48.674;9.018;2024-03-22T04:58:35;8.10;99.90
4556;DHT22;2290;48.674;9.018;2024-03-22T05:01:01;8.10;99.90
4556;DHT22;2290;48.674;9.018;2024-03-22T05:03:26;8.30;99.90
4556;DHT22;2290;48.674;9.018;2024-03-22T05:05:52;8.30;99.90
4556;DHT22;2290;48.674;9.018;2024-03-22T05:08:17;8.30;99.90
4556;DHT22;2290;48.674;9.018;2024-03-22T05:10:43;8.30;99.90
4556;DHT22;2290;48.674;9.018;2024-03-22T05:13:09;8.30;99.90
4556;DHT22;2290;48.674;9.018;2024-03-22T05:15:34;8.30;99.90
4556;DHT22;2290;48.674;9.018;2024-03-22T05:18:00;8.20;99.90
4556;DHT22;2290;48.674;9.018;2024-03-22T05:20:26;8.10;99.90
4556;DHT22;2290;48.674;9.018;2024-03-22T05:22:52;8.20;99.90
4556;DHT22;2290;48.674;9.018;2024-03-22T05:25:18;8.10;99.90
4556;DHT22;2290;48.674;9.018;2024-03-22T05:27:44;8.10;99.90
4556;DHT22;2290;48.674;9.018;2024-03-22T05:30:10;8.10;99.90
4556;DHT22;2290;48.674;9.018;2024-03-22T05:32:37;8.20;99.90
4556;DHT22;2290;48.674;9.018;2024-03-22T05:35:02;8.20;99.90
4556;DHT22;2290;48.674;9.018;2024-03-22T05:37:28;8.10;99.90
4556;DHT22;2290;48.674;9.018;2024-03-22T05:39:54;8.10;99.90
4556;DHT22;2290;48.674;9.018;2024-03-22T05:42:20;8.00;99.90
4556;DHT22;2290;48.674;9.018;2024-03-22T05:44:46;8.00;99.90
4556;DHT22;2290;48.674;9.018;2024-03-22T05:47:11;8.00;99.90
4556;DHT22;2290;48.674;9.018;2024-03-22T05:49:37;8.10;99.90
4556;DHT22;2290;48.674;9.018;2024-03-22T05:52:03;8.10;99.90
4556;DHT22;2290;48.674;9.018;2024-03-22T05:54:30;8.00;99.90
4556;DHT22;2290;48.674;9.018;2024-03-22T05:56:56;8.00;99.90
4556;DHT22;2290;48.674;9.018;2024-03-22T05:59:23;8.00;99.90
4556;DHT22;2290;48.674;9.018;2024-03-22T06:01:48;8.00;99.90
4556;DHT22;2290;48.674;9.018;2024-03-22T06:04:15;8.10;99.90
4556;DHT22;2290;48.674;9.018;2024-03-22T06:06:41;8.10;99.90
4556;DHT22;2290;48.674;9.018;2024-03-22T06:09:07;8.20;99.90
4556;DHT22;2290;48.674;9.018;2024-03-22T06:11:37;8.30;99.90
4556;DHT22;2290;48.674;9.018;2024-03-22T06:14:03;8.30;99.90
4556;DHT22;2290;48.674;9.018;2024-03-22T06:16:29;8.30;99.90
4556;DHT22;2290;48.674;9.018;2024-03-22T06:18:55;8.30;99.90
4556;DHT22;2290;48.674;9.018;2024-03-22T06:21:21;8.30;99.90
4556;DHT22;2290;48.674;9.018;2024-03-22T06:23:50;8.40;99.90
4556;DHT22;2290;48.674;9.018;2024-03-22T06:26:16;8.40;99.90
4556;DHT22;2290;48.674;9.018;2024-03-22T06:28:41;8.50;99.90
4556;DHT22;2290;48.674;9.018;2024-03-22T06:31:07;8.50;99.90
4556;DHT22;2290;48.674;9.018;2024-03-22T06:33:33;8.60;99.90
4556;DHT22;2290;48.674;9.018;2024-03-22T06:35:59;8.70;99.90
4556;DHT22;2290;48.674;9.018;2024-03-22T06:38:25;8.70;99.90
4556;DHT22;2290;48.674;9.018;2024-03-22T06:40:51;8.70;99.90
4556;DHT22;2290;48.674;9.018;2024-03-22T06:43:16;8.60;99.90
4556;DHT22;2290;48.674;9.018;2024-03-22T06:45:42;8.60;99.90
4556;DHT22;2290;48.674;9.018;2024-03-22T06:48:08;8.60;99.90
4556;DHT22;2290;48.674;9.018;2024-03-22T06:50:33;8.70;99.90
4556;DHT22;2290;48.674;9.018;2024-03-22T06:52:59;8.80;99.90
4556;DHT22;2290;48.674;9.018;2024-03-22T06:55:24;8.90;99.90
4556;DHT22;2290;48.674;9.018;2024-03-22T06:57:50;9.00;99.90
4556;DHT22;2290;48.674;9.018;2024-03-22T07:00:17;9.10;99.90
4556;DHT22;2290;48.674;9.018;2024-03-22T07:02:43;9.20;99.90
4556;DHT22;2290;48.674;9.018;2024-03-22T07:05:10;9.30;99.90
4556;DHT22;2290;48.674;9.018;2024-03-22T07:07:36;9.40;99.90
4556;DHT22;2290;48.674;9.018;2024-03-22T07:10:03;9.40;99.90
4556;DHT22;2290;48.674;9.018;2024-03-22T07:12:31;9.50;99.90
4556;DHT22;2290;48.674;9.018;2024-03-22T07:14:57;9.60;99.90
4556;DHT22;2290;48.674;9.018;2024-03-22T07:17:23;9.70;99.90
4556;DHT22;2290;48.674;9.018;2024-03-22T07:19:52;9.70;99.90
4556;DHT22;2290;48.674;9.018;2024-03-22T07:22:19;9.80;99.90
4556;DHT22;2290;48.674;9.018;2024-03-22T07:24:45;9.90;99.90
4556;DHT22;2290;48.674;9.018;2024-03-22T07:27:11;10.00;99.90
4556;DHT22;2290;48.674;9.018;2024-03-22T07:29:37;10.10;99.90
4556;DHT22;2290;48.674;9.018;2024-03-22T07:32:03;10.20;99.90
4556;DHT22;2290;48.674;9.018;2024-03-22T07:34:29;10.30;99.90
4556;DHT22;2290;48.674;9.018;2024-03-22T07:36:55;10.50;99.90
4556;DHT22;2290;48.674;9.018;2024-03-22T07:39:22;10.60;99.90
4556;DHT22;2290;48.674;9.018;2024-03-22T07:41:49;10.70;99.90
4556;DHT22;2290;48.674;9.018;2024-03-22T07:44:15;10.90;99.90
4556;DHT22;2290;48.674;9.018;2024-03-22T07:46:43;11.00;99.90
4556;DHT22;2290;48.674;9.018;2024-03-22T07:49:09;11.20;99.90
4556;DHT22;2290;48.674;9.018;2024-03-22T07:51:35;11.30;99.90
4556;DHT22;2290;48.674;9.018;2024-03-22T07:54:01;11.40;99.90
4556;DHT22;2290;48.674;9.018;2024-03-22T07:56:26;11.50;99.90
4556;DHT22;2290;48.674;9.018;2024-03-22T07:58:52;11.60;99.90
4556;DHT22;2290;48.674;9.018;2024-03-22T08:01:17;11.70;99.90
4556;DHT22;2290;48.674;9.018;2024-03-22T08:03:43;11.90;99.90
4556;DHT22;2290;48.674;9.018;2024-03-22T08:06:08;12.00;99.90
4556;DHT22;2290;48.674;9.018;2024-03-22T08:08:34;12.10;99.90
4556;DHT22;2290;48.674;9.018;2024-03-22T08:10:59;12.30;99.90
4556;DHT22;2290;48.674;9.018;2024-03-22T08:13:25;12.30;99.90
4556;DHT22;2290;48.674;9.018;2024-03-22T08:15:52;12.40;99.90
4556;DHT22;2290;48.674;9.018;2024-03-22T08:18:18;12.50;99.90
4556;DHT22;2290;48.674;9.018;2024-03-22T08:20:43;12.50;99.90
4556;DHT22;2290;48.674;9.018;2024-03-22T08:23:09;12.60;99.90
4556;DHT22;2290;48.674;9.018;2024-03-22T08:25:34;12.70;99.90
4556;DHT22;2290;48.674;9.018;2024-03-22T08:28:01;12.90;99.90
4556;DHT22;2290;48.674;9.018;2024-03-22T08:30:27;13.10;99.90
4556;DHT22;2290;48.674;9.018;2024-03-22T08:32:53;13.30;99.90
4556;DHT22;2290;48.674;9.018;2024-03-22T08:35:20;13.40;99.90
4556;DHT22;2290;48.674;9.018;2024-03-22T08:37:46;13.50;99.90
4556;DHT22;2290;48.674;9.018;2024-03-22T08:40:12;13.60;99.90
4556;DHT22;2290;48.674;9.018;2024-03-22T08:42:39;13.70;99.90
4556;DHT22;2290;48.674;9.018;2024-03-22T08:45:06;13.70;99.90
4556;DHT22;2290;48.674;9.018;2024-03-22T08:47:32;13.70;99.90
4556;DHT22;2290;48.674;9.018;2024-03-22T08:49:59;13.70;99.90
4556;DHT22;2290;48.674;9.018;2024-03-22T08:52:25;13.70;99.90
4556;DHT22;2290;48.674;9.018;2024-03-22T08:54:51;13.80;99.90
4556;DHT22;2290;48.674;9.018;2024-03-22T08:57:17;13.80;99.90
4556;DHT22;2290;48.674;9.018;2024-03-22T08:59:43;13.80;99.90
4556;DHT22;2290;48.674;9.018;2024-03-22T09:02:09;13.80;99.90
4556;DHT22;2290;48.674;9.018;2024-03-22T09:04:34;13.90;99.90
4556;DHT22;2290;48.674;9.018;2024-03-22T09:07:00;13.90;99.90
4556;DHT22;2290;48.674;9.018;2024-03-22T09:09:25;14.10;99.90
4556;DHT22;2290;48.674;9.018;2024-03-22T09:11:52;14.40;99.90
4556;DHT22;2290;48.674;9.018;2024-03-22T09:14:18;14.50;99.90
4556;DHT22;2290;48.674;9.018;2024-03-22T09:16:43;14.70;99.90
4556;DHT22;2290;48.674;9.018;2024-03-22T09:19:09;14.90;99.90
4556;DHT22;2290;48.674;9.018;2024-03-22T09:21:36;15.10;99.90
4556;DHT22;2290;48.674;9.018;2024-03-22T09:24:03;15.20;99.90
4556;DHT22;2290;48.674;9.018;2024-03-22T09:26:29;15.40;99.90
4556;DHT22;2290;48.674;9.018;2024-03-22T09:28:55;15.60;99.90
4556;DHT22;2290;48.674;9.018;2024-03-22T09:31:20;15.70;99.90
4556;DHT22;2290;48.674;9.018;2024-03-22T09:33:46;15.80;99.90
4556;DHT22;2290;48.674;9.018;2024-03-22T09:36:11;16.00;99.90
4556;DHT22;2290;48.674;9.018;2024-03-22T09:38:37;16.10;99.90
4556;DHT22;2290;48.674;9.018;2024-03-22T09:41:03;16.20;99.90
4556;DHT22;2290;48.674;9.018;2024-03-22T09:43:30;16.30;99.90
4556;DHT22;2290;48.674;9.018;2024-03-22T09:45:56;16.30;99.90
4556;DHT22;2290;48.674;9.018;2024-03-22T09:48:22;16.40;99.90
4556;DHT22;2290;48.674;9.018;2024-03-22T09:50:49;16.20;99.90
4556;DHT22;2290;48.674;9.018;2024-03-22T09:53:21;16.10;99.90
4556;DHT22;2290;48.674;9.018;2024-03-22T09:55:48;16.10;99.90
4556;DHT22;2290;48.674;9.018;2024-03-22T09:58:14;16.30;99.90
4556;DHT22;2290;48.674;9.018;2024-03-22T10:00:40;16.30;99.90
4556;DHT22;2290;48.674;9.018;2024-03-22T10:03:06;16.40;99.90
4556;DHT22;2290;48.674;9.018;2024-03-22T10:05:33;16.60;99.90
4556;DHT22;2290;48.674;9.018;2024-03-22T10:07:59;16.60;99.90
4556;DHT22;2290;48.674;9.018;2024-03-22T10:10:25;16.50;99.90
4556;DHT22;2290;48.674;9.018;2024-03-22T10:12:51;16.50;99.90
4556;DHT22;2290;48.674;9.018;2024-03-22T10:15:18;16.60;99.90
4556;DHT22;2290;48.674;9.018;2024-03-22T10:17:45;16.70;99.90
4556;DHT22;2290;48.674;9.018;2024-03-22T10:20:13;16.80;99.90
4556;DHT22;2290;48.674;9.018;2024-03-22T10:22:58;16.80;99.90
4556;DHT22;2290;48.674;9.018;2024-03-22T10:25:26;16.90;99.90
4556;DHT22;2290;48.674;9.018;2024-03-22T10:27:53;17.10;99.90
4556;DHT22;2290;48.674;9.018;2024-03-22T10:30:19;17.20;99.90
4556;DHT22;2290;48.674;9.018;2024-03-22T10:32:45;17.40;99.90
4556;DHT22;2290;48.674;9.018;2024-03-22T10:35:12;17.50;99.90
4556;DHT22;2290;48.674;9.018;2024-03-22T10:37:39;17.50;99.90
4556;DHT22;2290;48.674;9.018;2024-03-22T10:40:05;17.70;99.90
4556;DHT22;2290;48.674;9.018;2024-03-22T10:42:39;17.80;99.90
4556;DHT22;2290;48.674;9.018;2024-03-22T10:45:10;17.90;99.90
4556;DHT22;2290;48.674;9.018;2024-03-22T10:47:37;17.80;99.90
4556;DHT22;2290;48.674;9.018;2024-03-22T10:50:07;17.50;99.90
4556;DHT22;2290;48.674;9.018;2024-03-22T10:52:38;17.30;99.90
4556;DHT22;2290;48.674;9.018;2024-03-22T10:55:07;17.30;99.90
4556;DHT22;2290;48.674;9.018;2024-03-22T10:57:35;17.20;99.90
4556;DHT22;2290;48.674;9.018;2024-03-22T11:00:04;17.20;99.90
4556;DHT22;2290;48.674;9.018;2024-03-22T11:02:35;17.30;99.90
4556;DHT22;2290;48.674;9.018;2024-03-22T11:05:01;17.30;99.90
4556;DHT22;2290;48.674;9.018;2024-03-22T11:07:30;17.40;99.90
4556;DHT22;2290;48.674;9.018;2024-03-22T11:10:02;17.40;99.90
4556;DHT22;2290;48.674;9.018;2024-03-22T11:12:29;17.50;99.90
4556;DHT22;2290;48.674;9.018;2024-03-22T11:14:58;17.70;99.90
4556;DHT22;2290;48.674;9.018;2024-03-22T11:17:24;18.00;99.90
4556;DHT22;2290;48.674;9.018;2024-03-22T11:19:51;18.10;99.90
4556;DHT22;2290;48.674;9.018;2024-03-22T11:22:17;18.20;99.90
4556;DHT22;2290;48.674;9.018;2024-03-22T11:24:43;18.40;99.90
4556;DHT22;2290;48.674;9.018;2024-03-22T11:27:09;18.50;99.90
4556;DHT22;2290;48.674;9.018;2024-03-22T11:29:37;18.50;99.90
4556;DHT22;2290;48.674;9.018;2024-03-22T11:32:07;18.60;99.90
4556;DHT22;2290;48.674;9.018;2024-03-22T11:34:36;18.90;99.90
4556;DHT22;2290;48.674;9.018;2024-03-22T11:37:02;19.20;99.90
4556;DHT22;2290;48.674;9.018;2024-03-22T11:39:28;19.40;99.90
4556;DHT22;2290;48.674;9.018;2024-03-22T11:41:54;19.50;99.90
4556;DHT22;2290;48.674;9.018;2024-03-22T11:44:19;19.80;99.90
4556;DHT22;2290;48.674;9.018;2024-03-22T11:46:46;20.00;99.90
4556;DHT22;2290;48.674;9.018;2024-03-22T11:49:12;20.20;99.90
4556;DHT22;2290;48.674;9.018;2024-03-22T11:51:38;20.60;99.90
4556;DHT22;2290;48.674;9.018;2024-03-22T11:54:05;20.70;99.90
4556;DHT22;2290;48.674;9.018;2024-03-22T11:56:35;20.60;99.90
4556;DHT22;2290;48.674;9.018;2024-03-22T11:59:01;20.60;99.90
4556;DHT22;2290;48.674;9.018;2024-03-22T12:01:28;20.40;99.90
4556;DHT22;2290;48.674;9.018;2024-03-22T12:03:54;20.20;99.90
4556;DHT22;2290;48.674;9.018;2024-03-22T12:06:21;20.20;99.90
4556;DHT22;2290;48.674;9.018;2024-03-22T12:08:47;20.20;99.90
4556;DHT22;2290;48.674;9.018;2024-03-22T12:11:13;20.10;99.90
4556;DHT22;2290;48.674;9.018;2024-03-22T12:13:39;20.10;99.90
4556;DHT22;2290;48.674;9.018;2024-03-22T12:16:05;20.00;99.90
4556;DHT22;2290;48.674;9.018;2024-03-22T12:18:31;20.00;99.90
4556;DHT22;2290;48.674;9.018;2024-03-22T12:20:57;20.00;99.80
4556;DHT22;2290;48.674;9.018;2024-03-22T12:23:22;19.90;99.90
4556;DHT22;2290;48.674;9.018;2024-03-22T12:25:50;19.60;99.90
4556;DHT22;2290;48.674;9.018;2024-03-22T12:28:16;19.60;99.80
4556;DHT22;2290;48.674;9.018;2024-03-22T12:30:41;19.70;99.90
4556;DHT22;2290;48.674;9.018;2024-03-22T12:33:08;19.90;99.90
4556;DHT22;2290;48.674;9.018;2024-03-22T12:35:39;20.20;99.90
4556;DHT22;2290;48.674;9.018;2024-03-22T12:38:05;20.50;99.90
4556;DHT22;2290;48.674;9.018;2024-03-22T12:40:31;20.70;99.90
4556;DHT22;2290;48.674;9.018;2024-03-22T12:42:58;20.60;98.50
4556;DHT22;2290;48.674;9.018;2024-03-22T12:45:24;20.60;98.60
4556;DHT22;2290;48.674;9.018;2024-03-22T12:47:49;20.60;98.60
4556;DHT22;2290;48.674;9.018;2024-03-22T12:50:15;20.60;99.50
4556;DHT22;2290;48.674;9.018;2024-03-22T12:52:40;20.80;98.90
4556;DHT22;2290;48.674;9.018;2024-03-22T12:55:06;20.80;98.70
4556;DHT22;2290;48.674;9.018;2024-03-22T12:57:32;21.00;98.70
4556;DHT22;2290;48.674;9.018;2024-03-22T12:59:58;21.00;98.50
4556;DHT22;2290;48.674;9.018;2024-03-22T13:02:24;20.90;99.20
4556;DHT22;2290;48.674;9.018;2024-03-22T13:04:51;21.00;98.90
4556;DHT22;2290;48.674;9.018;2024-03-22T13:07:19;21.00;99.10
4556;DHT22;2290;48.674;9.018;2024-03-22T13:09:44;20.90;99.00
4556;DHT22;2290;48.674;9.018;2024-03-22T13:12:10;20.50;98.70
4556;DHT22;2290;48.674;9.018;2024-03-22T13:14:36;20.50;99.30
4556;DHT22;2290;48.674;9.018;2024-03-22T13:17:01;20.50;99.60
4556;DHT22;2290;48.674;9.018;2024-03-22T13:19:27;20.50;99.30
4556;DHT22;2290;48.674;9.018;2024-03-22T13:21:52;20.40;99.20
4556;DHT22;2290;48.674;9.018;2024-03-22T13:24:18;20.40;97.90
4556;DHT22;2290;48.674;9.018;2024-03-22T13:26:44;20.40;98.00
4556;DHT22;2290;48.674;9.018;2024-03-22T13:29:10;20.30;98.00
4556;DHT22;2290;48.674;9.018;2024-03-22T13:31:35;20.30;98.70
4556;DHT22;2290;48.674;9.018;2024-03-22T13:34:01;20.50;98.50
4556;DHT22;2290;48.674;9.018;2024-03-22T13:36:27;20.60;97.90
4556;DHT22;2290;48.674;9.018;2024-03-22T13:38:53;20.70;98.00
4556;DHT22;2290;48.674;9.018;2024-03-22T13:41:19;20.80;97.90
4556;DHT22;2290;48.674;9.018;2024-03-22T13:43:44;20.80;97.50
4556;DHT22;2290;48.674;9.018;2024-03-22T13:46:10;20.80;96.90
4556;DHT22;2290;48.674;9.018;2024-03-22T13:48:40;20.70;96.30
4556;DHT22;2290;48.674;9.018;2024-03-22T13:51:05;20.80;96.50
4556;DHT22;2290;48.674;9.018;2024-03-22T13:53:31;20.80;96.60
4556;DHT22;2290;48.674;9.018;2024-03-22T13:55:57;21.00;96.30
4556;DHT22;2290;48.674;9.018;2024-03-22T13:58:22;21.40;96.50
4556;DHT22;2290;48.674;9.018;2024-03-22T14:00:48;22.00;95.70
4556;DHT22;2290;48.674;9.018;2024-03-22T14:03:13;22.60;95.10
4556;DHT22;2290;48.674;9.018;2024-03-22T14:05:39;22.80;95.00
4556;DHT22;2290;48.674;9.018;2024-03-22T14:08:05;22.90;94.10
4556;DHT22;2290;48.674;9.018;2024-03-22T14:10:31;23.20;94.20
4556;DHT22;2290;48.674;9.018;2024-03-22T14:12:57;23.50;93.60
4556;DHT22;2290;48.674;9.018;2024-03-22T14:15:23;24.00;93.10
4556;DHT22;2290;48.674;9.018;2024-03-22T14:17:50;24.10;90.50
4556;DHT22;2290;48.674;9.018;2024-03-22T14:20:16;24.00;86.30
4556;DHT22;2290;48.674;9.018;2024-03-22T14:22:42;23.90;86.80
4556;DHT22;2290;48.674;9.018;2024-03-22T14:25:08;23.90;87.70
4556;DHT22;2290;48.674;9.018;2024-03-22T14:27:34;23.70;87.90
4556;DHT22;2290;48.674;9.018;2024-03-22T14:30:01;23.00;84.50
4556;DHT22;2290;48.674;9.018;2024-03-22T14:32:30;22.60;86.20
4556;DHT22;2290;48.674;9.018;2024-03-22T14:34:56;22.60;84.50
4556;DHT22;2290;48.674;9.018;2024-03-22T14:37:22;22.90;84.40
4556;DHT22;2290;48.674;9.018;2024-03-22T14:39:47;22.80;78.50
4556;DHT22;2290;48.674;9.018;2024-03-22T14:42:13;22.80;79.40
4556;DHT22;2290;48.674;9.018;2024-03-22T14:44:38;23.00;77.10
4556;DHT22;2290;48.674;9.018;2024-03-22T14:47:04;22.80;76.80
4556;DHT22;2290;48.674;9.018;2024-03-22T14:49:30;22.30;75.50
4556;DHT22;2290;48.674;9.018;2024-03-22T14:51:55;21.60;75.00
4556;DHT22;2290;48.674;9.018;2024-03-22T14:54:21;21.20;76.20
4556;DHT22;2290;48.674;9.018;2024-03-22T14:56:46;21.10;79.70
4556;DHT22;2290;48.674;9.018;2024-03-22T14:59:12;21.10;79.30
4556;DHT22;2290;48.674;9.018;2024-03-22T15:01:37;21.00;81.10
4556;DHT22;2290;48.674;9.018;2024-03-22T15:04:04;21.00;82.70
4556;DHT22;2290;48.674;9.018;2024-03-22T15:06:29;20.90;82.20
4556;DHT22;2290;48.674;9.018;2024-03-22T15:08:55;20.90;81.80
4556;DHT22;2290;48.674;9.018;2024-03-22T15:11:21;20.70;82.70
4556;DHT22;2290;48.674;9.018;2024-03-22T15:13:47;20.50;84.30
4556;DHT22;2290;48.674;9.018;2024-03-22T15:16:12;20.20;83.60
4556;DHT22;2290;48.674;9.018;2024-03-22T15:18:39;20.20;81.00
4556;DHT22;2290;48.674;9.018;2024-03-22T15:21:07;20.20;79.80
4556;DHT22;2290;48.674;9.018;2024-03-22T15:23:33;20.20;80.20
4556;DHT22;2290;48.674;9.018;2024-03-22T15:25:58;19.90;80.60
4556;DHT22;2290;48.674;9.018;2024-03-22T15:28:24;19.70;80.70
4556;DHT22;2290;48.674;9.018;2024-03-22T15:30:49;19.50;81.30
4556;DHT22;2290;48.674;9.018;2024-03-22T15:33:16;19.20;78.80
4556;DHT22;2290;48.674;9.018;2024-03-22T15:35:42;19.10;78.50
4556;DHT22;2290;48.674;9.018;2024-03-22T15:38:13;19.00;78.80
4556;DHT22;2290;48.674;9.018;2024-03-22T15:40:38;18.80;72.60
4556;DHT22;2290;48.674;9.018;2024-03-22T15:43:12;18.70;75.20
4556;DHT22;2290;48.674;9.018;2024-03-22T15:45:38;18.60;75.80
4556;DHT22;2290;48.674;9.018;2024-03-22T15:48:05;18.60;75.50
4556;DHT22;2290;48.674;9.018;2024-03-22T15:50:37;18.50;76.70
4556;DHT22;2290;48.674;9.018;2024-03-22T15:53:03;18.30;78.10
4556;DHT22;2290;48.674;9.018;2024-03-22T15:55:29;18.20;77.90
4556;DHT22;2290;48.674;9.018;2024-03-22T15:57:55;18.10;79.90
4556;DHT22;2290;48.674;9.018;2024-03-22T16:00:24;18.10;80.90
4556;DHT22;2290;48.674;9.018;2024-03-22T16:02:50;18.00;79.10